createdAt,value
2018-06-09T00:00:27.387Z,1005.8
2018-06-09T00:01:29.402Z,1005.9
2018-06-09T00:02:31.694Z,1005.8
2018-06-09T00:03:33.696Z,1005.8
2018-06-09T00:04:35.694Z,1005.8
2018-06-09T00:05:37.698Z,1005.8
2018-06-09T00:06:39.714Z,1005.8
2018-06-09T00:07:41.706Z,1005.8
2018-06-09T00:08:43.992Z,1005.8
2018-06-09T00:09:46.004Z,1005.8
2018-06-09T00:10:47.996Z,1005.8
2018-06-09T00:11:50.313Z,1005.8
2018-06-09T00:12:52.318Z,1005.8
2018-06-09T00:13:54.314Z,1005.8
2018-06-09T00:14:56.316Z,1005.8
2018-06-09T00:15:58.317Z,1005.8
2018-06-09T00:17:00.319Z,1005.8
2018-06-09T00:18:02.324Z,1005.8
2018-06-09T00:19:04.325Z,1005.8
2018-06-09T00:20:06.330Z,1005.8
2018-06-09T00:21:08.325Z,1005.7
2018-06-09T00:22:10.328Z,1005.8
2018-06-09T00:23:12.324Z,1005.7
2018-06-09T00:24:14.323Z,1005.7
2018-06-09T00:25:16.340Z,1005.8
2018-06-09T00:26:18.340Z,1005.7
2018-06-09T00:27:20.341Z,1005.8
2018-06-09T00:28:22.345Z,1005.8
2018-06-09T00:29:24.357Z,1005.8
2018-06-09T00:30:26.363Z,1005.8
2018-06-09T00:31:28.356Z,1005.8
2018-06-09T00:32:30.368Z,1005.8
2018-06-09T00:33:32.370Z,1005.8
2018-06-09T00:34:34.653Z,1005.8
2018-06-09T00:35:36.658Z,1005.7
2018-06-09T00:36:38.664Z,1005.8
2018-06-09T00:37:40.671Z,1005.8
2018-06-09T00:38:42.665Z,1005.8
2018-06-09T00:39:44.669Z,1005.8
2018-06-09T00:40:47.061Z,1005.8
2018-06-09T00:41:49.049Z,1005.8
2018-06-09T00:42:51.057Z,1005.8
2018-06-09T00:43:53.061Z,1005.8
2018-06-09T00:44:55.060Z,1005.8
2018-06-09T00:45:57.352Z,1005.8
2018-06-09T00:46:59.362Z,1005.8
2018-06-09T00:48:02.028Z,1005.8
2018-06-09T00:49:04.334Z,1005.8
2018-06-09T00:50:06.630Z,1005.8
2018-06-09T00:51:08.617Z,1005.8
2018-06-09T00:52:10.619Z,1005.9
2018-06-09T00:53:12.631Z,1005.9
2018-06-09T00:54:14.629Z,1005.9
2018-06-09T00:55:16.915Z,1005.8
2018-06-09T00:56:18.921Z,1005.8
2018-06-09T00:57:20.919Z,1005.9
2018-06-09T00:58:22.923Z,1005.8
2018-06-09T00:59:24.928Z,1005.9
2018-06-09T01:00:27.497Z,1005.9
2018-06-09T01:01:29.779Z,1006
2018-06-09T01:02:31.775Z,1006
2018-06-09T01:03:33.789Z,1005.9
2018-06-09T01:04:35.803Z,1006
2018-06-09T01:05:37.797Z,1006
2018-06-09T01:06:39.802Z,1005.9
2018-06-09T01:07:41.803Z,1006
2018-06-09T01:08:43.804Z,1006
2018-06-09T01:09:45.800Z,1006
2018-06-09T01:10:47.806Z,1006
2018-06-09T01:11:49.818Z,1006
2018-06-09T01:12:51.831Z,1005.9
2018-06-09T01:13:54.102Z,1005.9
2018-06-09T01:14:56.117Z,1005.9
2018-06-09T01:15:59.079Z,1005.9
2018-06-09T01:17:01.465Z,1005.9
2018-06-09T01:18:03.871Z,1006
2018-06-09T01:19:05.892Z,1006
2018-06-09T01:20:08.467Z,1006
2018-06-09T01:21:11.050Z,1006
2018-06-09T01:22:13.037Z,1006
2018-06-09T01:23:15.043Z,1006
2018-06-09T01:24:17.057Z,1006
2018-06-09T01:25:19.060Z,1006
2018-06-09T01:26:21.051Z,1005.9
2018-06-09T01:27:23.063Z,1006
2018-06-09T01:28:25.351Z,1006
2018-06-09T01:29:27.350Z,1005.9
2018-06-09T01:30:29.357Z,1005.9
2018-06-09T01:31:31.355Z,1005.9
2018-06-09T01:32:33.368Z,1005.9
2018-06-09T01:33:35.645Z,1005.9
2018-06-09T01:34:37.648Z,1005.9
2018-06-09T01:35:39.657Z,1005.9
2018-06-09T01:36:41.658Z,1005.9
2018-06-09T01:37:43.940Z,1005.9
2018-06-09T01:38:45.950Z,1005.9
2018-06-09T01:39:47.941Z,1005.9
2018-06-09T01:40:49.955Z,1005.9
2018-06-09T01:41:52.229Z,1005.9
2018-06-09T01:42:54.519Z,1005.9
2018-06-09T01:43:56.517Z,1005.8
2018-06-09T01:44:58.517Z,1005.8
2018-06-09T01:46:00.506Z,1005.8
2018-06-09T01:47:02.518Z,1005.9
2018-06-09T01:48:04.513Z,1005.8
2018-06-09T01:49:06.522Z,1005.9
2018-06-09T01:50:08.517Z,1005.9
2018-06-09T01:51:10.523Z,1005.8
2018-06-09T01:52:12.525Z,1005.9
2018-06-09T01:53:14.521Z,1005.9
2018-06-09T01:54:16.515Z,1005.9
2018-06-09T01:55:18.533Z,1005.9
2018-06-09T01:56:20.915Z,1006
2018-06-09T01:57:22.916Z,1005.9
2018-06-09T01:58:25.303Z,1005.9
2018-06-09T01:59:27.305Z,1005.9
2018-06-09T02:00:29.302Z,1006
2018-06-09T02:01:31.580Z,1006
2018-06-09T02:02:33.871Z,1006
2018-06-09T02:03:36.269Z,1006
2018-06-09T02:04:38.277Z,1006
2018-06-09T02:05:40.285Z,1006
2018-06-09T02:06:42.280Z,1006
2018-06-09T02:07:44.285Z,1006
2018-06-09T02:08:46.290Z,1006
2018-06-09T02:09:48.876Z,1006
2018-06-09T02:10:50.874Z,1006
2018-06-09T02:11:53.164Z,1006
2018-06-09T02:12:55.168Z,1005.9
2018-06-09T02:13:57.748Z,1006
2018-06-09T02:14:59.747Z,1005.9
2018-06-09T02:16:01.759Z,1005.9
2018-06-09T02:17:03.766Z,1005.9
2018-06-09T02:18:06.052Z,1006
2018-06-09T02:19:08.046Z,1006
2018-06-09T02:20:10.352Z,1006
2018-06-09T02:21:12.347Z,1006
2018-06-09T02:22:14.349Z,1006
2018-06-09T02:23:16.745Z,1006
2018-06-09T02:24:19.026Z,1006
2018-06-09T02:25:21.030Z,1005.9
2018-06-09T02:26:23.032Z,1006
2018-06-09T02:27:25.317Z,1005.9
2018-06-09T02:28:27.313Z,1005.9
2018-06-09T02:29:29.308Z,1005.9
2018-06-09T02:30:31.594Z,1005.9
2018-06-09T02:31:33.593Z,1005.9
2018-06-09T02:32:36.158Z,1005.9
2018-06-09T02:33:38.762Z,1005.9
2018-06-09T02:34:41.143Z,1005.9
2018-06-09T02:35:43.158Z,1005.9
2018-06-09T02:36:45.461Z,1005.9
2018-06-09T02:37:47.741Z,1005.9
2018-06-09T02:38:49.745Z,1005.9
2018-06-09T02:39:52.033Z,1005.8
2018-06-09T02:40:54.028Z,1005.8
2018-06-09T02:41:56.330Z,1005.9
2018-06-09T02:42:58.329Z,1005.9
2018-06-09T02:44:00.336Z,1005.9
2018-06-09T02:45:03.296Z,1005.8
2018-06-09T02:46:05.682Z,1005.8
2018-06-09T02:47:07.692Z,1005.8
2018-06-09T02:48:09.689Z,1005.9
2018-06-09T02:49:11.994Z,1005.9
2018-06-09T02:50:14.383Z,1005.9
2018-06-09T02:51:16.391Z,1005.8
2018-06-09T02:52:18.380Z,1005.8
2018-06-09T02:53:20.386Z,1005.9
2018-06-09T02:54:22.789Z,1005.9
2018-06-09T02:55:24.787Z,1005.9
2018-06-09T02:56:26.808Z,1005.9
2018-06-09T02:57:29.367Z,1005.9
2018-06-09T02:58:31.369Z,1005.9
2018-06-09T02:59:33.657Z,1005.9
2018-06-09T03:00:35.945Z,1006
2018-06-09T03:01:38.238Z,1006
2018-06-09T03:02:41.018Z,1006
2018-06-09T03:03:43.011Z,1006
2018-06-09T03:04:45.014Z,1006
2018-06-09T03:05:47.309Z,1006
2018-06-09T03:06:49.307Z,1005.9
2018-06-09T03:07:51.313Z,1005.9
2018-06-09T03:08:53.980Z,1005.9
2018-06-09T03:09:56.647Z,1006
2018-06-09T03:10:58.651Z,1005.9
2018-06-09T03:12:01.596Z,1005.8
2018-06-09T03:13:04.619Z,1005.9
2018-06-09T03:14:07.002Z,1005.9
2018-06-09T03:15:09.284Z,1005.9
2018-06-09T03:16:11.602Z,1005.9
2018-06-09T03:17:13.984Z,1005.9
2018-06-09T03:18:16.674Z,1005.9
2018-06-09T03:19:18.671Z,1005.8
2018-06-09T03:20:20.678Z,1005.8
2018-06-09T03:21:22.683Z,1005.9
2018-06-09T03:22:24.682Z,1005.9
2018-06-09T03:23:26.683Z,1005.9
2018-06-09T03:24:28.682Z,1005.8
2018-06-09T03:25:30.676Z,1005.8
2018-06-09T03:26:32.690Z,1005.8
2018-06-09T03:27:34.674Z,1005.8
2018-06-09T03:28:36.682Z,1005.8
2018-06-09T03:29:38.960Z,1005.8
2018-06-09T03:30:40.952Z,1005.8
2018-06-09T03:31:42.952Z,1005.8
2018-06-09T03:32:45.511Z,1005.8
2018-06-09T03:33:47.891Z,1005.8
2018-06-09T03:34:49.909Z,1005.8
2018-06-09T03:35:51.898Z,1005.8
2018-06-09T03:36:54.194Z,1005.7
2018-06-09T03:37:56.193Z,1005.7
2018-06-09T03:38:58.194Z,1005.8
2018-06-09T03:40:00.510Z,1005.8
2018-06-09T03:41:02.797Z,1005.8
2018-06-09T03:42:05.082Z,1005.8
2018-06-09T03:43:07.104Z,1005.8
2018-06-09T03:44:09.076Z,1005.8
2018-06-09T03:45:11.369Z,1005.8
2018-06-09T03:46:13.358Z,1005.8
2018-06-09T03:47:15.360Z,1005.8
2018-06-09T03:48:17.354Z,1005.8
2018-06-09T03:49:19.634Z,1005.8
2018-06-09T03:50:21.919Z,1005.8
2018-06-09T03:51:23.920Z,1005.8
2018-06-09T03:52:25.916Z,1005.7
2018-06-09T03:53:27.927Z,1005.8
2018-06-09T03:54:30.203Z,1005.7
2018-06-09T03:55:32.493Z,1005.7
2018-06-09T03:56:34.496Z,1005.7
2018-06-09T03:57:36.495Z,1005.7
2018-06-09T03:58:38.501Z,1005.7
2018-06-09T03:59:40.875Z,1005.7
2018-06-09T04:00:43.264Z,1005.7
2018-06-09T04:01:45.261Z,1005.7
2018-06-09T04:02:47.274Z,1005.7
2018-06-09T04:03:49.573Z,1005.7
2018-06-09T04:04:51.570Z,1005.7
2018-06-09T04:05:53.577Z,1005.7
2018-06-09T04:06:55.969Z,1005.6
2018-06-09T04:07:57.957Z,1005.6
2018-06-09T04:08:59.964Z,1005.6
2018-06-09T04:10:02.254Z,1005.6
2018-06-09T04:11:04.535Z,1005.6
2018-06-09T04:12:06.921Z,1005.6
2018-06-09T04:13:08.921Z,1005.6
2018-06-09T04:14:10.916Z,1005.6
2018-06-09T04:15:12.921Z,1005.6
2018-06-09T04:16:14.919Z,1005.7
2018-06-09T04:17:16.930Z,1005.7
2018-06-09T04:18:18.927Z,1005.7
2018-06-09T04:19:21.205Z,1005.7
2018-06-09T04:20:23.208Z,1005.7
2018-06-09T04:21:25.206Z,1005.6
2018-06-09T04:22:27.202Z,1005.6
2018-06-09T04:23:29.480Z,1005.6
2018-06-09T04:24:31.480Z,1005.6
2018-06-09T04:25:33.481Z,1005.7
2018-06-09T04:26:35.474Z,1005.7
2018-06-09T04:27:37.757Z,1005.7
2018-06-09T04:28:39.758Z,1005.7
2018-06-09T04:29:42.041Z,1005.7
2018-06-09T04:30:44.326Z,1005.6
2018-06-09T04:31:46.322Z,1005.6
2018-06-09T04:32:48.319Z,1005.6
2018-06-09T04:33:50.338Z,1005.6
2018-06-09T04:34:52.336Z,1005.6
2018-06-09T04:35:54.330Z,1005.6
2018-06-09T04:36:56.330Z,1005.6
2018-06-09T04:37:58.335Z,1005.6
2018-06-09T04:39:00.334Z,1005.7
2018-06-09T04:40:02.414Z,1005.7
2018-06-09T04:41:04.797Z,1005.7
2018-06-09T04:42:06.813Z,1005.7
2018-06-09T04:43:08.803Z,1005.7
2018-06-09T04:44:11.191Z,1005.7
2018-06-09T04:45:13.188Z,1005.7
2018-06-09T04:46:15.187Z,1005.7
2018-06-09T04:47:17.193Z,1005.7
2018-06-09T04:48:19.188Z,1005.8
2018-06-09T04:49:21.180Z,1005.7
2018-06-09T04:50:23.186Z,1005.7
2018-06-09T04:51:25.176Z,1005.7
2018-06-09T04:52:27.185Z,1005.7
2018-06-09T04:53:29.179Z,1005.7
2018-06-09T04:54:31.559Z,1005.7
2018-06-09T04:55:34.254Z,1005.7
2018-06-09T04:56:36.938Z,1005.7
2018-06-09T04:57:38.945Z,1005.8
2018-06-09T04:58:40.952Z,1005.7
2018-06-09T04:59:43.233Z,1005.8
2018-06-09T05:00:45.236Z,1005.8
2018-06-09T05:01:47.231Z,1005.8
2018-06-09T05:02:49.237Z,1005.8
2018-06-09T05:03:51.245Z,1005.8
2018-06-09T05:04:53.246Z,1005.8
2018-06-09T05:05:55.252Z,1005.8
2018-06-09T05:06:57.243Z,1005.8
2018-06-09T05:07:59.251Z,1005.7
2018-06-09T05:09:01.539Z,1005.7
2018-06-09T05:10:03.929Z,1005.7
2018-06-09T05:11:05.929Z,1005.7
2018-06-09T05:12:08.231Z,1005.7
2018-06-09T05:13:10.231Z,1005.7
2018-06-09T05:14:12.223Z,1005.7
2018-06-09T05:15:14.220Z,1005.7
2018-06-09T05:16:16.226Z,1005.7
2018-06-09T05:17:18.220Z,1005.7
2018-06-09T05:18:20.249Z,1005.7
2018-06-09T05:19:22.619Z,1005.7
2018-06-09T05:20:24.619Z,1005.7
2018-06-09T05:21:26.615Z,1005.7
2018-06-09T05:22:28.905Z,1005.7
2018-06-09T05:23:30.899Z,1005.8
2018-06-09T05:24:33.188Z,1005.8
2018-06-09T05:25:35.187Z,1005.8
2018-06-09T05:26:37.191Z,1005.8
2018-06-09T05:27:39.494Z,1005.8
2018-06-09T05:28:41.496Z,1005.8
2018-06-09T05:29:43.881Z,1005.8
2018-06-09T05:30:46.268Z,1005.8
2018-06-09T05:31:48.265Z,1005.8
2018-06-09T05:32:50.570Z,1005.8
2018-06-09T05:33:52.843Z,1005.8
2018-06-09T05:34:54.850Z,1005.9
2018-06-09T05:35:56.850Z,1005.9
2018-06-09T05:36:58.852Z,1005.9
2018-06-09T05:38:01.144Z,1005.9
2018-06-09T05:39:03.431Z,1005.8
2018-06-09T05:40:05.418Z,1005.9
2018-06-09T05:41:07.428Z,1005.9
2018-06-09T05:42:09.729Z,1005.9
2018-06-09T05:43:11.734Z,1005.9
2018-06-09T05:44:14.394Z,1005.9
2018-06-09T05:45:16.405Z,1005.9
2018-06-09T05:46:18.691Z,1005.9
2018-06-09T05:47:20.703Z,1005.9
2018-06-09T05:48:22.703Z,1005.9
2018-06-09T05:49:24.716Z,1005.9
2018-06-09T05:50:27.785Z,1005.9
2018-06-09T05:51:30.059Z,1005.9
2018-06-09T05:52:32.060Z,1005.9
2018-06-09T05:53:34.065Z,1006
2018-06-09T05:54:36.057Z,1006
2018-06-09T05:55:38.102Z,1006
2018-06-09T05:56:40.073Z,1006
2018-06-09T05:57:42.069Z,1006
2018-06-09T05:58:44.076Z,1006
2018-06-09T05:59:46.468Z,1006
2018-06-09T06:00:48.863Z,1006
2018-06-09T06:01:50.870Z,1006
2018-06-09T06:02:53.148Z,1006
2018-06-09T06:03:55.220Z,1006
2018-06-09T06:04:57.506Z,1006
2018-06-09T06:05:59.496Z,1006
2018-06-09T06:07:01.807Z,1006
2018-06-09T06:08:03.809Z,1006
2018-06-09T06:09:05.811Z,1006
2018-06-09T06:10:07.814Z,1006
2018-06-09T06:11:09.827Z,1006
2018-06-09T06:12:12.220Z,1005.9
2018-06-09T06:13:14.211Z,1006
2018-06-09T06:14:16.213Z,1006
2018-06-09T06:15:18.226Z,1006
2018-06-09T06:16:20.230Z,1005.9
2018-06-09T06:17:22.234Z,1005.9
2018-06-09T06:18:24.237Z,1005.9
2018-06-09T06:19:26.247Z,1005.9
2018-06-09T06:20:28.246Z,1005.9
2018-06-09T06:21:30.521Z,1005.9
2018-06-09T06:22:32.925Z,1005.9
2018-06-09T06:23:34.926Z,1005.9
2018-06-09T06:24:36.919Z,1005.9
2018-06-09T06:25:39.218Z,1005.9
2018-06-09T06:26:41.521Z,1005.9
2018-06-09T06:27:43.811Z,1005.9
2018-06-09T06:28:46.104Z,1005.9
2018-06-09T06:29:48.478Z,1005.9
2018-06-09T06:30:50.486Z,1005.9
2018-06-09T06:31:53.174Z,1005.9
2018-06-09T06:32:55.483Z,1006
2018-06-09T06:33:57.488Z,1006
2018-06-09T06:34:59.499Z,1006
2018-06-09T06:36:01.508Z,1006
2018-06-09T06:37:03.503Z,1006
2018-06-09T06:38:05.790Z,1006
2018-06-09T06:39:07.806Z,1006
2018-06-09T06:40:09.810Z,1006
2018-06-09T06:41:11.813Z,1006
2018-06-09T06:42:13.811Z,1006
2018-06-09T06:43:15.817Z,1006
2018-06-09T06:44:18.108Z,1006
2018-06-09T06:45:20.114Z,1006
2018-06-09T06:46:22.129Z,1006.1
2018-06-09T06:47:24.137Z,1006
2018-06-09T06:48:26.132Z,1006
2018-06-09T06:49:28.726Z,1006.1
2018-06-09T06:50:31.123Z,1006.1
2018-06-09T06:51:33.134Z,1006.1
2018-06-09T06:52:35.139Z,1006.1
2018-06-09T06:53:37.534Z,1006.1
2018-06-09T06:54:39.828Z,1006.1
2018-06-09T06:55:41.815Z,1006.1
2018-06-09T06:56:44.109Z,1006.2
2018-06-09T06:57:46.123Z,1006.2
2018-06-09T06:58:48.508Z,1006.2
2018-06-09T06:59:50.511Z,1006.2
2018-06-09T07:00:52.518Z,1006.2
2018-06-09T07:01:54.907Z,1006.2
2018-06-09T07:02:57.493Z,1006.2
2018-06-09T07:03:59.782Z,1006.2
2018-06-09T07:05:01.788Z,1006.2
2018-06-09T07:06:04.360Z,1006.2
2018-06-09T07:07:06.368Z,1006.2
2018-06-09T07:08:08.377Z,1006.2
2018-06-09T07:09:10.659Z,1006.2
2018-06-09T07:10:12.662Z,1006.2
2018-06-09T07:11:14.942Z,1006.2
2018-06-09T07:12:16.951Z,1006.2
2018-06-09T07:13:18.948Z,1006.2
2018-06-09T07:14:20.960Z,1006.2
2018-06-09T07:15:22.966Z,1006.2
2018-06-09T07:16:24.974Z,1006.2
2018-06-09T07:17:26.973Z,1006.2
2018-06-09T07:18:28.991Z,1006.2
2018-06-09T07:19:30.997Z,1006.1
2018-06-09T07:20:33.007Z,1006.2
2018-06-09T07:21:35.009Z,1006.2
2018-06-09T07:22:37.028Z,1006.2
2018-06-09T07:23:39.028Z,1006.2
2018-06-09T07:24:41.420Z,1006.2
2018-06-09T07:25:43.425Z,1006.2
2018-06-09T07:26:45.434Z,1006.2
2018-06-09T07:27:47.436Z,1006.2
2018-06-09T07:28:49.726Z,1006.2
2018-06-09T07:29:51.725Z,1006.2
2018-06-09T07:30:53.740Z,1006.2
2018-06-09T07:31:55.744Z,1006.3
2018-06-09T07:32:57.756Z,1006.2
2018-06-09T07:34:00.056Z,1006.3
2018-06-09T07:35:02.104Z,1006.2
2018-06-09T07:36:04.795Z,1006.2
2018-06-09T07:37:06.807Z,1006.2
2018-06-09T07:38:08.814Z,1006.3
2018-06-09T07:39:10.823Z,1006.3
2018-06-09T07:40:12.824Z,1006.3
2018-06-09T07:41:14.833Z,1006.2
2018-06-09T07:42:16.842Z,1006.3
2018-06-09T07:43:19.139Z,1006.3
2018-06-09T07:44:21.150Z,1006.3
2018-06-09T07:45:23.145Z,1006.3
2018-06-09T07:46:25.436Z,1006.2
2018-06-09T07:47:27.457Z,1006.2
2018-06-09T07:48:29.848Z,1006.3
2018-06-09T07:49:31.853Z,1006.2
2018-06-09T07:50:33.865Z,1006.2
2018-06-09T07:51:35.872Z,1006.3
2018-06-09T07:52:37.876Z,1006.3
2018-06-09T07:53:39.887Z,1006.3
2018-06-09T07:54:41.903Z,1006.3
2018-06-09T07:55:43.916Z,1006.3
2018-06-09T07:56:45.922Z,1006.3
2018-06-09T07:57:47.929Z,1006.2
2018-06-09T07:58:49.934Z,1006.2
2018-06-09T07:59:51.943Z,1006.2
2018-06-09T08:00:53.952Z,1006.2
2018-06-09T08:01:56.357Z,1006.2
2018-06-09T08:02:58.358Z,1006.2
2018-06-09T08:04:00.364Z,1006.2
2018-06-09T08:05:02.377Z,1006.2
2018-06-09T08:06:04.388Z,1006.3
2018-06-09T08:07:06.405Z,1006.3
2018-06-09T08:08:08.406Z,1006.3
2018-06-09T08:09:10.425Z,1006.3
2018-06-09T08:10:12.434Z,1006.3
2018-06-09T08:11:14.439Z,1006.3
2018-06-09T08:12:16.450Z,1006.3
2018-06-09T08:13:18.460Z,1006.2
2018-06-09T08:14:20.480Z,1006.3
2018-06-09T08:15:22.495Z,1006.3
2018-06-09T08:16:24.494Z,1006.2
2018-06-09T08:17:26.513Z,1006.2
2018-06-09T08:18:29.187Z,1006.2
2018-06-09T08:19:31.275Z,1006.3
2018-06-09T08:20:34.338Z,1006.3
2018-06-09T08:21:36.352Z,1006.3
2018-06-09T08:22:38.367Z,1006.3
2018-06-09T08:23:40.375Z,1006.3
2018-06-09T08:24:42.673Z,1006.3
2018-06-09T08:25:44.679Z,1006.3
2018-06-09T08:26:46.680Z,1006.3
2018-06-09T08:27:48.701Z,1006.3
2018-06-09T08:28:50.707Z,1006.3
2018-06-09T08:29:53.110Z,1006.3
2018-06-09T08:30:55.121Z,1006.3
2018-06-09T08:31:57.138Z,1006.3
2018-06-09T08:32:59.153Z,1006.3
2018-06-09T08:34:01.165Z,1006.3
2018-06-09T08:35:03.893Z,1006.3
2018-06-09T08:36:05.960Z,1006.3
2018-06-09T08:37:07.913Z,1006.3
2018-06-09T08:38:09.920Z,1006.3
2018-06-09T08:39:11.931Z,1006.3
2018-06-09T08:40:13.939Z,1006.3
2018-06-09T08:41:16.250Z,1006.3
2018-06-09T08:42:18.652Z,1006.3
2018-06-09T08:43:20.657Z,1006.3
2018-06-09T08:44:22.957Z,1006.3
2018-06-09T08:45:24.963Z,1006.3
2018-06-09T08:46:26.972Z,1006.3
2018-06-09T08:47:28.987Z,1006.2
2018-06-09T08:48:30.991Z,1006.3
2018-06-09T08:49:33.020Z,1006.3
2018-06-09T08:50:35.032Z,1006.3
2018-06-09T08:51:37.318Z,1006.3
2018-06-09T08:52:39.335Z,1006.3
2018-06-09T08:53:41.347Z,1006.3
2018-06-09T08:54:43.637Z,1006.3
2018-06-09T08:55:45.657Z,1006.3
2018-06-09T08:56:47.665Z,1006.3
2018-06-09T08:57:49.982Z,1006.3
2018-06-09T08:58:52.006Z,1006.3
2018-06-09T08:59:54.016Z,1006.3
2018-06-09T09:00:56.027Z,1006.3
2018-06-09T09:01:58.043Z,1006.3
2018-06-09T09:03:00.078Z,1006.3
2018-06-09T09:04:02.073Z,1006.3
2018-06-09T09:05:04.085Z,1006.3
2018-06-09T09:06:06.758Z,1006.3
2018-06-09T09:07:08.785Z,1006.3
2018-06-09T09:08:10.788Z,1006.3
2018-06-09T09:09:13.366Z,1006.3
2018-06-09T09:10:15.386Z,1006.3
2018-06-09T09:11:17.958Z,1006.3
2018-06-09T09:12:20.363Z,1006.3
2018-06-09T09:13:22.657Z,1006.3
2018-06-09T09:14:25.068Z,1006.3
2018-06-09T09:15:27.373Z,1006.3
2018-06-09T09:16:29.409Z,1006.3
2018-06-09T09:17:31.826Z,1006.3
2018-06-09T09:18:34.120Z,1006.3
2018-06-09T09:19:36.140Z,1006.3
2018-06-09T09:20:38.539Z,1006.3
2018-06-09T09:21:40.547Z,1006.2
2018-06-09T09:22:42.875Z,1006.2
2018-06-09T09:23:45.176Z,1006.2
2018-06-09T09:24:47.179Z,1006.2
2018-06-09T09:25:49.254Z,1006.2
2018-06-09T09:26:51.228Z,1006.2
2018-06-09T09:27:53.249Z,1006.2
2018-06-09T09:28:55.260Z,1006.2
2018-06-09T09:29:57.268Z,1006.2
2018-06-09T09:30:59.599Z,1006.2
2018-06-09T09:32:01.917Z,1006.2
2018-06-09T09:33:04.218Z,1006.2
2018-06-09T09:34:07.074Z,1006.2
2018-06-09T09:35:09.091Z,1006.2
2018-06-09T09:36:11.101Z,1006.2
2018-06-09T09:37:13.500Z,1006.3
2018-06-09T09:38:15.521Z,1006.2
2018-06-09T09:39:17.849Z,1006.3
2018-06-09T09:40:20.147Z,1006.2
2018-06-09T09:41:22.430Z,1006.2
2018-06-09T09:42:24.444Z,1006.2
2018-06-09T09:43:26.474Z,1006.2
2018-06-09T09:44:28.486Z,1006.2
2018-06-09T09:45:30.892Z,1006.2
2018-06-09T09:46:33.191Z,1006.2
2018-06-09T09:47:35.203Z,1006.2
2018-06-09T09:48:37.216Z,1006.2
2018-06-09T09:49:39.511Z,1006.2
2018-06-09T09:50:41.538Z,1006.1
2018-06-09T09:51:43.556Z,1006.2
2018-06-09T09:52:45.576Z,1006.2
2018-06-09T09:53:47.593Z,1006.2
2018-06-09T09:54:49.645Z,1006.2
2018-06-09T09:55:52.426Z,1006.2
2018-06-09T09:56:54.441Z,1006.2
2018-06-09T09:57:56.469Z,1006.2
2018-06-09T09:58:58.486Z,1006.2
2018-06-09T10:00:00.788Z,1006.2
2018-06-09T10:01:02.813Z,1006.2
2018-06-09T10:02:05.117Z,1006.2
2018-06-09T10:03:07.152Z,1006.2
2018-06-09T10:04:09.448Z,1006.2
2018-06-09T10:05:11.467Z,1006.2
2018-06-09T10:06:13.485Z,1006.2
2018-06-09T10:07:15.507Z,1006.2
2018-06-09T10:08:17.530Z,1006.2
2018-06-09T10:09:19.829Z,1006.2
2018-06-09T10:10:21.856Z,1006.2
2018-06-09T10:11:23.897Z,1006.2
2018-06-09T10:12:25.900Z,1006.2
2018-06-09T10:13:27.937Z,1006.2
2018-06-09T10:14:29.976Z,1006.1
2018-06-09T10:15:32.271Z,1006.1
2018-06-09T10:16:34.302Z,1006.2
2018-06-09T10:17:36.706Z,1006.1
2018-06-09T10:18:38.730Z,1006.2
2018-06-09T10:19:40.751Z,1006.1
2018-06-09T10:20:42.773Z,1006.1
2018-06-09T10:21:45.108Z,1006.1
2018-06-09T10:22:47.118Z,1006.1
2018-06-09T10:23:49.435Z,1006
2018-06-09T10:24:51.455Z,1006.1
2018-06-09T10:25:53.857Z,1006.1
2018-06-09T10:26:56.187Z,1006
2018-06-09T10:27:58.209Z,1006
2018-06-09T10:29:00.237Z,1006
2018-06-09T10:30:02.660Z,1006
2018-06-09T10:31:05.230Z,1006
2018-06-09T10:32:07.558Z,1006
2018-06-09T10:33:09.580Z,1006
2018-06-09T10:34:11.604Z,1006
2018-06-09T10:35:14.012Z,1006
2018-06-09T10:36:16.048Z,1006
2018-06-09T10:37:18.068Z,1006
2018-06-09T10:38:20.086Z,1006
2018-06-09T10:39:22.114Z,1006
2018-06-09T10:40:24.449Z,1006
2018-06-09T10:41:26.468Z,1006
2018-06-09T10:42:28.779Z,1006
2018-06-09T10:43:30.810Z,1006
2018-06-09T10:44:32.839Z,1005.9
2018-06-09T10:45:34.854Z,1006
2018-06-09T10:46:37.167Z,1006
2018-06-09T10:47:39.194Z,1005.9
2018-06-09T10:48:41.500Z,1005.9
2018-06-09T10:49:43.515Z,1005.9
2018-06-09T10:50:45.538Z,1005.9
2018-06-09T10:51:47.950Z,1005.9
2018-06-09T10:52:49.978Z,1005.9
2018-06-09T10:53:52.009Z,1005.9
2018-06-09T10:54:54.026Z,1005.9
2018-06-09T10:55:56.051Z,1005.9
2018-06-09T10:56:58.081Z,1005.9
2018-06-09T10:58:00.104Z,1005.9
2018-06-09T10:59:02.134Z,1005.8
2018-06-09T11:00:04.157Z,1005.8
2018-06-09T11:01:06.766Z,1005.8
2018-06-09T11:02:08.786Z,1005.8
2018-06-09T11:03:10.803Z,1005.8
2018-06-09T11:04:12.843Z,1005.8
2018-06-09T11:05:14.880Z,1005.8
2018-06-09T11:06:16.903Z,1005.8
2018-06-09T11:07:18.934Z,1005.7
2018-06-09T11:08:20.955Z,1005.7
2018-06-09T11:09:22.979Z,1005.7
2018-06-09T11:10:24.995Z,1005.8
2018-06-09T11:11:27.032Z,1005.8
2018-06-09T11:12:29.353Z,1005.8
2018-06-09T11:13:31.373Z,1005.8
2018-06-09T11:14:33.405Z,1005.7
2018-06-09T11:15:35.432Z,1005.8
2018-06-09T11:16:37.468Z,1005.8
2018-06-09T11:17:40.043Z,1005.8
2018-06-09T11:18:42.065Z,1005.8
2018-06-09T11:19:44.095Z,1005.7
2018-06-09T11:20:46.111Z,1005.7
2018-06-09T11:21:48.424Z,1005.7
2018-06-09T11:22:50.456Z,1005.6
2018-06-09T11:23:52.480Z,1005.6
2018-06-09T11:24:54.785Z,1005.6
2018-06-09T11:25:57.186Z,1005.5
2018-06-09T11:26:59.221Z,1005.5
2018-06-09T11:28:01.523Z,1005.5
2018-06-09T11:29:03.549Z,1005.5
2018-06-09T11:30:05.574Z,1005.5
2018-06-09T11:31:07.594Z,1005.5
2018-06-09T11:32:09.625Z,1005.5
2018-06-09T11:33:11.654Z,1005.5
2018-06-09T11:34:13.678Z,1005.5
2018-06-09T11:35:16.089Z,1005.5
2018-06-09T11:36:18.109Z,1005.5
2018-06-09T11:37:20.147Z,1005.5
2018-06-09T11:38:22.171Z,1005.4
2018-06-09T11:39:24.200Z,1005.4
2018-06-09T11:40:26.506Z,1005.4
2018-06-09T11:41:28.528Z,1005.4
2018-06-09T11:42:30.567Z,1005.4
2018-06-09T11:43:32.582Z,1005.4
2018-06-09T11:44:34.620Z,1005.3
2018-06-09T11:45:36.654Z,1005.3
2018-06-09T11:46:38.669Z,1005.3
2018-06-09T11:47:40.704Z,1005.4
2018-06-09T11:48:42.728Z,1005.4
2018-06-09T11:49:45.054Z,1005.4
2018-06-09T11:50:47.075Z,1005.4
2018-06-09T11:51:49.781Z,1005.4
2018-06-09T11:52:52.095Z,1005.4
2018-06-09T11:53:54.117Z,1005.4
2018-06-09T11:54:56.150Z,1005.4
2018-06-09T11:55:58.181Z,1005.3
2018-06-09T11:57:00.207Z,1005.3
2018-06-09T11:58:02.519Z,1005.4
2018-06-09T11:59:04.935Z,1005.4
2018-06-09T12:00:06.971Z,1005.4
2018-06-09T12:01:08.991Z,1005.3
2018-06-09T12:02:11.013Z,1005.4
2018-06-09T12:03:13.048Z,1005.4
2018-06-09T12:04:15.077Z,1005.4
2018-06-09T12:05:17.102Z,1005.4
2018-06-09T12:06:19.131Z,1005.3
2018-06-09T12:07:21.160Z,1005.3
2018-06-09T12:08:23.179Z,1005.3
2018-06-09T12:09:25.204Z,1005.3
2018-06-09T12:10:27.234Z,1005.4
2018-06-09T12:11:29.260Z,1005.3
2018-06-09T12:12:31.290Z,1005.3
2018-06-09T12:13:33.310Z,1005.3
2018-06-09T12:14:35.336Z,1005.3
2018-06-09T12:15:37.739Z,1005.3
2018-06-09T12:16:39.771Z,1005.2
2018-06-09T12:17:41.795Z,1005.2
2018-06-09T12:18:43.824Z,1005.3
2018-06-09T12:19:45.851Z,1005.3
2018-06-09T12:20:47.876Z,1005.2
2018-06-09T12:21:49.896Z,1005.2
2018-06-09T12:22:51.932Z,1005.3
2018-06-09T12:23:53.950Z,1005.2
2018-06-09T12:24:56.004Z,1005.2
2018-06-09T12:25:58.441Z,1005.2
2018-06-09T12:27:00.862Z,1005.2
2018-06-09T12:28:02.881Z,1005.2
2018-06-09T12:29:05.187Z,1005.3
2018-06-09T12:30:07.215Z,1005.3
2018-06-09T12:31:09.237Z,1005.2
2018-06-09T12:32:11.277Z,1005.2
2018-06-09T12:33:13.315Z,1005.2
2018-06-09T12:34:15.331Z,1005.2
2018-06-09T12:35:17.371Z,1005.2
2018-06-09T12:36:19.393Z,1005.2
2018-06-09T12:37:21.421Z,1005.2
2018-06-09T12:38:23.448Z,1005.2
2018-06-09T12:39:25.575Z,1005.2
2018-06-09T12:40:27.509Z,1005.2
2018-06-09T12:41:29.526Z,1005.2
2018-06-09T12:42:31.551Z,1005.2
2018-06-09T12:43:33.591Z,1005.2
2018-06-09T12:44:35.614Z,1005.2
2018-06-09T12:45:37.650Z,1005.2
2018-06-09T12:46:39.672Z,1005.2
2018-06-09T12:47:41.706Z,1005.2
2018-06-09T12:48:43.785Z,1005.2
2018-06-09T12:49:45.755Z,1005.1
2018-06-09T12:50:47.786Z,1005.2
2018-06-09T12:51:49.808Z,1005.2
2018-06-09T12:52:51.837Z,1005.2
2018-06-09T12:53:53.860Z,1005.2
2018-06-09T12:54:56.337Z,1005.2
2018-06-09T12:55:58.297Z,1005.1
2018-06-09T12:57:00.318Z,1005
2018-06-09T12:58:02.362Z,1005
2018-06-09T12:59:04.690Z,1005
2018-06-09T13:00:07.099Z,1005
2018-06-09T13:01:09.131Z,1005
2018-06-09T13:02:11.749Z,1005